sensor_id;sensor_type;location;lat;lon;timestamp;pressure;altitude;pressure_sealevel;temperature;humidity
70407;BME280;57821;52.202;0.154;2024-02-21T00:00:19;101961.13;;;10.63;95.86
70407;BME280;57821;52.202;0.154;2024-02-21T00:02:46;101972.38;;;10.63;97.11
70407;BME280;57821;52.202;0.154;2024-02-21T00:05:13;101960.28;;;10.64;96.42
70407;BME280;57821;52.202;0.154;2024-02-21T00:07:39;101964.63;;;10.65;96.50
70407;BME280;57821;52.202;0.154;2024-02-21T00:10:07;101960.31;;;10.65;96.63
70407;BME280;57821;52.202;0.154;2024-02-21T00:12:34;101953.34;;;10.66;96.09
70407;BME280;57821;52.202;0.154;2024-02-21T00:15:01;101946.44;;;10.66;95.75
70407;BME280;57821;52.202;0.154;2024-02-21T00:17:28;101942.16;;;10.67;96.30
70407;BME280;57821;52.202;0.154;2024-02-21T00:19:54;101926.56;;;10.67;96.30
70407;BME280;57821;52.202;0.154;2024-02-21T00:22:21;101922.25;;;10.67;96.63
70407;BME280;57821;52.202;0.154;2024-02-21T00:24:48;101922.25;;;10.67;95.77
70407;BME280;57821;52.202;0.154;2024-02-21T00:27:14;101927.50;;;10.69;96.22
70407;BME280;57821;52.202;0.154;2024-02-21T00:29:41;101925.75;;;10.68;95.74
70407;BME280;57821;52.202;0.154;2024-02-21T00:32:08;101929.19;;;10.67;95.60
70407;BME280;57821;52.202;0.154;2024-02-21T00:34:34;101933.56;;;10.69;95.73
70407;BME280;57821;52.202;0.154;2024-02-21T00:37:02;101931.81;;;10.68;95.40
70407;BME280;57821;52.202;0.154;2024-02-21T00:39:29;101936.09;;;10.68;95.35
70407;BME280;57821;52.202;0.154;2024-02-21T00:41:55;101937.84;;;10.67;95.22
70407;BME280;57821;52.202;0.154;2024-02-21T00:44:22;101941.34;;;10.69;95.83
70407;BME280;57821;52.202;0.154;2024-02-21T00:46:49;101929.19;;;10.68;95.84
70407;BME280;57821;52.202;0.154;2024-02-21T00:49:16;101922.28;;;10.69;95.18
70407;BME280;57821;52.202;0.154;2024-02-21T00:51:43;101912.72;;;10.66;95.85
70407;BME280;57821;52.202;0.154;2024-02-21T00:54:09;101905.00;;;10.69;95.92
70407;BME280;57821;52.202;0.154;2024-02-21T00:56:36;101901.56;;;10.70;95.39
70407;BME280;57821;52.202;0.154;2024-02-21T00:59:03;101898.97;;;10.70;95.15
70407;BME280;57821;52.202;0.154;2024-02-21T01:01:30;101882.56;;;10.72;95.18
70407;BME280;57821;52.202;0.154;2024-02-21T01:03:57;101880.81;;;10.70;95.61
70407;BME280;57821;52.202;0.154;2024-02-21T01:06:24;101879.94;;;10.70;95.45
70407;BME280;57821;52.202;0.154;2024-02-21T01:08:50;101885.13;;;10.70;95.58
70407;BME280;57821;52.202;0.154;2024-02-21T01:11:17;101885.13;;;10.70;95.52
70407;BME280;57821;52.202;0.154;2024-02-21T01:13:44;101884.25;;;10.69;95.72
70407;BME280;57821;52.202;0.154;2024-02-21T01:16:11;101877.34;;;10.70;94.69
70407;BME280;57821;52.202;0.154;2024-02-21T01:18:38;101876.47;;;10.69;95.13
70407;BME280;57821;52.202;0.154;2024-02-21T01:21:08;101876.44;;;10.68;95.59
70407;BME280;57821;52.202;0.154;2024-02-21T01:23:37;101880.75;;;10.67;95.37
70407;BME280;57821;52.202;0.154;2024-02-21T01:26:04;101865.19;;;10.67;95.11
70407;BME280;57821;52.202;0.154;2024-02-21T01:28:31;101867.78;;;10.67;94.39
70407;BME280;57821;52.202;0.154;2024-02-21T01:30:58;101861.75;;;10.65;95.17
70407;BME280;57821;52.202;0.154;2024-02-21T01:33:24;101857.38;;;10.66;94.87
70407;BME280;57821;52.202;0.154;2024-02-21T01:35:51;101849.59;;;10.66;95.04
70407;BME280;57821;52.202;0.154;2024-02-21T01:38:18;101834.91;;;10.63;95.52
70407;BME280;57821;52.202;0.154;2024-02-21T01:40:45;101836.66;;;10.64;95.11
70407;BME280;57821;52.202;0.154;2024-02-21T01:43:21;101835.75;;;10.62;96.28
70407;BME280;57821;52.202;0.154;2024-02-21T01:46:07;101832.31;;;10.63;97.54
70407;BME280;57821;52.202;0.154;2024-02-21T01:48:34;101821.97;;;10.65;95.73
70407;BME280;57821;52.202;0.154;2024-02-21T01:51:02;101807.28;;;10.65;95.40
70407;BME280;57821;52.202;0.154;2024-02-21T01:53:37;101802.09;;;10.65;95.62
70407;BME280;57821;52.202;0.154;2024-02-21T01:56:08;101791.69;;;10.67;94.78
70407;BME280;57821;52.202;0.154;2024-02-21T01:58:39;101783.91;;;10.67;94.81
70407;BME280;57821;52.202;0.154;2024-02-21T02:01:07;101782.19;;;10.67;94.54
70407;BME280;57821;52.202;0.154;2024-02-21T02:03:33;101778.75;;;10.65;94.73
70407;BME280;57821;52.202;0.154;2024-02-21T02:06:00;101774.41;;;10.64;94.84
70407;BME280;57821;52.202;0.154;2024-02-21T02:08:27;101764.88;;;10.66;94.64
70407;BME280;57821;52.202;0.154;2024-02-21T02:10:54;101760.59;;;10.65;94.86
70407;BME280;57821;52.202;0.154;2024-02-21T02:13:21;101753.66;;;10.66;94.32
70407;BME280;57821;52.202;0.154;2024-02-21T02:15:49;101743.28;;;10.64;94.37
70407;BME280;57821;52.202;0.154;2024-02-21T02:18:17;101743.28;;;10.64;94.46
70407;BME280;57821;52.202;0.154;2024-02-21T02:20:45;101730.28;;;10.63;94.83
70407;BME280;57821;52.202;0.154;2024-02-21T02:23:28;101729.41;;;10.62;96.11
70407;BME280;57821;52.202;0.154;2024-02-21T02:25:55;101719.88;;;10.61;94.37
70407;BME280;57821;52.202;0.154;2024-02-21T02:28:23;101712.09;;;10.58;94.80
70407;BME280;57821;52.202;0.154;2024-02-21T02:30:50;101713.81;;;10.59;94.67
70407;BME280;57821;52.202;0.154;2024-02-21T02:33:17;101704.31;;;10.58;94.28
70407;BME280;57821;52.202;0.154;2024-02-21T02:35:45;101705.19;;;10.59;94.61
70407;BME280;57821;52.202;0.154;2024-02-21T02:38:12;101695.66;;;10.58;94.50
70407;BME280;57821;52.202;0.154;2024-02-21T02:40:40;101700.00;;;10.59;94.78
70407;BME280;57821;52.202;0.154;2024-02-21T02:43:08;101702.59;;;10.59;94.49
70407;BME280;57821;52.202;0.154;2024-02-21T02:45:34;101706.91;;;10.58;94.61
70407;BME280;57821;52.202;0.154;2024-02-21T02:48:01;101693.91;;;10.57;94.77
70407;BME280;57821;52.202;0.154;2024-02-21T02:50:28;101696.47;;;10.55;94.94
70407;BME280;57821;52.202;0.154;2024-02-21T02:52:55;101693.88;;;10.54;95.05
70407;BME280;57821;52.202;0.154;2024-02-21T02:55:22;101686.94;;;10.51;95.14
70407;BME280;57821;52.202;0.154;2024-02-21T02:57:49;101681.75;;;10.53;94.72
70407;BME280;57821;52.202;0.154;2024-02-21T03:00:16;101679.16;;;10.51;94.93
70407;BME280;57821;52.202;0.154;2024-02-21T03:02:46;101670.47;;;10.49;95.37
70407;BME280;57821;52.202;0.154;2024-02-21T03:05:18;101666.16;;;10.50;95.07
70407;BME280;57821;52.202;0.154;2024-02-21T03:07:47;101658.38;;;10.50;94.19
70407;BME280;57821;52.202;0.154;2024-02-21T03:10:14;101660.09;;;10.49;94.82
70407;BME280;57821;52.202;0.154;2024-02-21T03:12:44;101654.06;;;10.50;94.46
70407;BME280;57821;52.202;0.154;2024-02-21T03:15:11;101648.03;;;10.51;95.04
70407;BME280;57821;52.202;0.154;2024-02-21T03:17:38;101650.63;;;10.51;95.24
70407;BME280;57821;52.202;0.154;2024-02-21T03:20:06;101629.91;;;10.54;95.17
70407;BME280;57821;52.202;0.154;2024-02-21T03:22:37;101627.31;;;10.56;94.61
70407;BME280;57821;52.202;0.154;2024-02-21T03:25:05;101617.81;;;10.56;94.31
70407;BME280;57821;52.202;0.154;2024-02-21T03:27:33;101623.03;;;10.58;94.73
70407;BME280;57821;52.202;0.154;2024-02-21T03:29:59;101614.38;;;10.57;94.09
70407;BME280;57821;52.202;0.154;2024-02-21T03:32:26;101604.91;;;10.59;94.51
70407;BME280;57821;52.202;0.154;2024-02-21T03:34:55;101595.38;;;10.58;93.95
70407;BME280;57821;52.202;0.154;2024-02-21T03:37:22;101613.56;;;10.60;94.26
70407;BME280;57821;52.202;0.154;2024-02-21T03:39:49;101603.19;;;10.60;93.93
70407;BME280;57821;52.202;0.154;2024-02-21T03:42:16;101600.59;;;10.61;93.91
70407;BME280;57821;52.202;0.154;2024-02-21T03:44:43;101600.59;;;10.61;94.02
70407;BME280;57821;52.202;0.154;2024-02-21T03:47:09;101588.47;;;10.60;94.30
70407;BME280;57821;52.202;0.154;2024-02-21T03:49:38;101588.47;;;10.60;93.40
70407;BME280;57821;52.202;0.154;2024-02-21T03:52:05;101578.09;;;10.60;94.25
70407;BME280;57821;52.202;0.154;2024-02-21T03:54:32;101580.69;;;10.59;93.41
70407;BME280;57821;52.202;0.154;2024-02-21T03:56:58;101567.72;;;10.57;94.32
70407;BME280;57821;52.202;0.154;2024-02-21T03:59:25;101569.41;;;10.55;94.46
70407;BME280;57821;52.202;0.154;2024-02-21T04:01:52;101564.22;;;10.54;94.39
70407;BME280;57821;52.202;0.154;2024-02-21T04:04:20;101558.97;;;10.49;94.10
70407;BME280;57821;52.202;0.154;2024-02-21T04:06:48;101562.44;;;10.48;94.35
70407;BME280;57821;52.202;0.154;2024-02-21T04:09:15;101564.16;;;10.46;94.29
70407;BME280;57821;52.202;0.154;2024-02-21T04:11:42;101554.63;;;10.42;95.21
70407;BME280;57821;52.202;0.154;2024-02-21T04:14:09;101539.00;;;10.38;95.75
70407;BME280;57821;52.202;0.154;2024-02-21T04:16:38;101531.19;;;10.35;95.40
70407;BME280;57821;52.202;0.154;2024-02-21T04:19:06;101532.91;;;10.34;96.05
70407;BME280;57821;52.202;0.154;2024-02-21T04:21:33;101531.16;;;10.30;95.60
70407;BME280;57821;52.202;0.154;2024-02-21T04:23:59;101528.53;;;10.27;96.40
70407;BME280;57821;52.202;0.154;2024-02-21T04:26:27;101519.00;;;10.24;96.57
70407;BME280;57821;52.202;0.154;2024-02-21T04:28:53;101520.69;;;10.21;96.44
70407;BME280;57821;52.202;0.154;2024-02-21T04:31:20;101517.22;;;10.19;97.37
70407;BME280;57821;52.202;0.154;2024-02-21T04:33:47;101518.94;;;10.17;96.73
70407;BME280;57821;52.202;0.154;2024-02-21T04:36:14;101504.16;;;10.14;97.24
70407;BME280;57821;52.202;0.154;2024-02-21T04:38:41;101507.59;;;10.13;97.09
70407;BME280;57821;52.202;0.154;2024-02-21T04:41:08;101503.28;;;10.11;97.21
70407;BME280;57821;52.202;0.154;2024-02-21T04:43:34;101494.63;;;10.09;97.27
70407;BME280;57821;52.202;0.154;2024-02-21T04:46:01;101492.03;;;10.07;97.20
70407;BME280;57821;52.202;0.154;2024-02-21T04:48:28;101486.81;;;10.04;97.49
70407;BME280;57821;52.202;0.154;2024-02-21T04:50:55;101476.44;;;10.01;97.66
70407;BME280;57821;52.202;0.154;2024-02-21T04:53:21;101460.84;;;9.98;98.35
70407;BME280;57821;52.202;0.154;2024-02-21T04:55:48;101450.47;;;9.95;97.92
70407;BME280;57821;52.202;0.154;2024-02-21T04:58:15;101451.31;;;9.94;98.66
70407;BME280;57821;52.202;0.154;2024-02-21T05:00:42;101443.50;;;9.93;98.91
70407;BME280;57821;52.202;0.154;2024-02-21T05:03:08;101434.84;;;9.89;98.55
70407;BME280;57821;52.202;0.154;2024-02-21T05:05:35;101428.81;;;9.88;99.29
70407;BME280;57821;52.202;0.154;2024-02-21T05:08:03;101408.94;;;9.87;99.10
70407;BME280;57821;52.202;0.154;2024-02-21T05:10:29;101409.78;;;9.86;99.70
70407;BME280;57821;52.202;0.154;2024-02-21T05:12:57;101408.91;;;9.86;99.86
70407;BME280;57821;52.202;0.154;2024-02-21T05:15:25;101416.66;;;9.84;100.00
70407;BME280;57821;52.202;0.154;2024-02-21T05:17:51;101402.84;;;9.82;99.88
70407;BME280;57821;52.202;0.154;2024-02-21T05:20:18;101402.84;;;9.84;99.98
70407;BME280;57821;52.202;0.154;2024-02-21T05:22:45;101400.25;;;9.82;99.42
70407;BME280;57821;52.202;0.154;2024-02-21T05:25:12;101395.06;;;9.82;100.00
70407;BME280;57821;52.202;0.154;2024-02-21T05:27:38;101390.75;;;9.81;99.85
70407;BME280;57821;52.202;0.154;2024-02-21T05:30:05;101376.03;;;9.80;100.00
70407;BME280;57821;52.202;0.154;2024-02-21T05:32:33;101367.41;;;9.80;100.00
70407;BME280;57821;52.202;0.154;2024-02-21T05:35:00;101359.66;;;9.81;99.99
70407;BME280;57821;52.202;0.154;2024-02-21T05:37:27;101348.44;;;9.81;99.97
70407;BME280;57821;52.202;0.154;2024-02-21T05:39:54;101338.94;;;9.81;99.66
70407;BME280;57821;52.202;0.154;2024-02-21T05:42:20;101342.38;;;9.80;99.86
70407;BME280;57821;52.202;0.154;2024-02-21T05:44:47;101325.09;;;9.79;99.62
70407;BME280;57821;52.202;0.154;2024-02-21T05:47:14;101300.03;;;9.78;99.53
70407;BME280;57821;52.202;0.154;2024-02-21T05:49:42;101293.13;;;9.76;100.00
70407;BME280;57821;52.202;0.154;2024-02-21T05:52:09;101290.56;;;9.77;99.67
70407;BME280;57821;52.202;0.154;2024-02-21T05:54:39;101281.91;;;9.75;99.67
70407;BME280;57821;52.202;0.154;2024-02-21T05:57:07;101275.84;;;9.75;99.49
70407;BME280;57821;52.202;0.154;2024-02-21T05:59:34;101281.91;;;9.75;99.99
70407;BME280;57821;52.202;0.154;2024-02-21T06:02:03;101289.69;;;9.75;99.80
70407;BME280;57821;52.202;0.154;2024-02-21T06:04:30;101273.25;;;9.73;98.97
70407;BME280;57821;52.202;0.154;2024-02-21T06:06:57;101271.53;;;9.74;99.78
70407;BME280;57821;52.202;0.154;2024-02-21T06:09:24;101262.03;;;9.74;99.38
70407;BME280;57821;52.202;0.154;2024-02-21T06:11:51;101265.47;;;9.73;99.23
70407;BME280;57821;52.202;0.154;2024-02-21T06:14:19;101257.72;;;9.72;98.89
70407;BME280;57821;52.202;0.154;2024-02-21T06:16:46;101250.81;;;9.72;98.65
70407;BME280;57821;52.202;0.154;2024-02-21T06:19:13;101249.09;;;9.71;98.83
70407;BME280;57821;52.202;0.154;2024-02-21T06:21:40;101244.78;;;9.72;98.47
70407;BME280;57821;52.202;0.154;2024-02-21T06:24:06;101233.50;;;9.67;98.28
70407;BME280;57821;52.202;0.154;2024-02-21T06:26:33;101244.78;;;9.72;98.60
70407;BME280;57821;52.202;0.154;2024-02-21T06:29:00;101231.81;;;9.70;98.58
70407;BME280;57821;52.202;0.154;2024-02-21T06:31:29;101216.28;;;9.70;98.55
70407;BME280;57821;52.202;0.154;2024-02-21T06:33:56;101214.56;;;9.71;98.14
70407;BME280;57821;52.202;0.154;2024-02-21T06:36:23;101197.31;;;9.71;98.06
70407;BME280;57821;52.202;0.154;2024-02-21T06:38:49;101186.94;;;9.71;97.68
70407;BME280;57821;52.202;0.154;2024-02-21T06:41:17;101176.59;;;9.71;96.99
70407;BME280;57821;52.202;0.154;2024-02-21T06:43:46;101169.66;;;9.70;97.38
70407;BME280;57821;52.202;0.154;2024-02-21T06:46:27;101167.94;;;9.69;96.98
70407;BME280;57821;52.202;0.154;2024-02-21T06:49:00;101161.00;;;9.68;96.51
70407;BME280;57821;52.202;0.154;2024-02-21T06:51:28;101152.41;;;9.69;97.15
70407;BME280;57821;52.202;0.154;2024-02-21T06:53:55;101155.84;;;9.68;96.18
70407;BME280;57821;52.202;0.154;2024-02-21T06:56:25;101131.69;;;9.66;96.05
70407;BME280;57821;52.202;0.154;2024-02-21T06:58:56;101119.56;;;9.67;95.52
70407;BME280;57821;52.202;0.154;2024-02-21T07:01:23;101111.81;;;9.65;95.88
70407;BME280;57821;52.202;0.154;2024-02-21T07:03:50;101101.44;;;9.67;95.63
70407;BME280;57821;52.202;0.154;2024-02-21T07:06:17;101098.88;;;9.65;95.14
70407;BME280;57821;52.202;0.154;2024-02-21T07:08:44;101091.94;;;9.64;95.35
70407;BME280;57821;52.202;0.154;2024-02-21T07:11:11;101091.94;;;9.64;95.98
70407;BME280;57821;52.202;0.154;2024-02-21T07:13:38;101085.91;;;9.64;95.48
70407;BME280;57821;52.202;0.154;2024-02-21T07:16:05;101074.69;;;9.63;95.30
70407;BME280;57821;52.202;0.154;2024-02-21T07:18:32;101068.63;;;9.63;95.77
70407;BME280;57821;52.202;0.154;2024-02-21T07:20:59;101048.78;;;9.63;95.63
70407;BME280;57821;52.202;0.154;2024-02-21T07:23:26;101058.28;;;9.64;95.13
70407;BME280;57821;52.202;0.154;2024-02-21T07:25:52;101045.34;;;9.64;95.19
70407;BME280;57821;52.202;0.154;2024-02-21T07:28:19;101032.38;;;9.63;95.20
70407;BME280;57821;52.202;0.154;2024-02-21T07:30:46;101028.94;;;9.62;95.60
70407;BME280;57821;52.202;0.154;2024-02-21T07:33:13;101019.44;;;9.61;94.74
70407;BME280;57821;52.202;0.154;2024-02-21T07:35:39;101025.47;;;9.59;95.20
70407;BME280;57821;52.202;0.154;2024-02-21T07:38:08;101019.44;;;9.58;95.27
70407;BME280;57821;52.202;0.154;2024-02-21T07:40:39;101002.16;;;9.57;95.25
70407;BME280;57821;52.202;0.154;2024-02-21T07:43:06;100999.56;;;9.57;95.39
70407;BME280;57821;52.202;0.154;2024-02-21T07:45:32;100984.91;;;9.56;95.47
70407;BME280;57821;52.202;0.154;2024-02-21T07:47:59;100975.41;;;9.55;95.50
70407;BME280;57821;52.202;0.154;2024-02-21T07:50:26;100972.81;;;9.55;95.65
70407;BME280;57821;52.202;0.154;2024-02-21T07:52:53;100965.06;;;9.54;96.05
70407;BME280;57821;52.202;0.154;2024-02-21T07:55:20;100953.84;;;9.53;95.88
70407;BME280;57821;52.202;0.154;2024-02-21T07:57:47;100959.00;;;9.53;96.17
70407;BME280;57821;52.202;0.154;2024-02-21T08:00:14;100950.38;;;9.53;96.51
70407;BME280;57821;52.202;0.154;2024-02-21T08:02:46;100936.56;;;9.49;96.31
70407;BME280;57821;52.202;0.154;2024-02-21T08:05:13;100941.75;;;9.52;96.67
70407;BME280;57821;52.202;0.154;2024-02-21T08:07:39;100937.44;;;9.51;96.74
70407;BME280;57821;52.202;0.154;2024-02-21T08:10:07;100920.16;;;9.50;97.13
70407;BME280;57821;52.202;0.154;2024-02-21T08:12:34;100927.09;;;9.53;97.13
70407;BME280;57821;52.202;0.154;2024-02-21T08:15:02;100924.47;;;9.51;97.01
70407;BME280;57821;52.202;0.154;2024-02-21T08:17:33;100916.72;;;9.53;98.19
70407;BME280;57821;52.202;0.154;2024-02-21T08:19:59;100921.91;;;9.54;97.11
70407;BME280;57821;52.202;0.154;2024-02-21T08:22:26;100902.03;;;9.50;97.11
70407;BME280;57821;52.202;0.154;2024-02-21T08:24:53;100912.41;;;9.53;97.34
70407;BME280;57821;52.202;0.154;2024-02-21T08:27:20;100901.19;;;9.53;97.64
70407;BME280;57821;52.202;0.154;2024-02-21T08:29:47;100904.66;;;9.55;97.47
70407;BME280;57821;52.202;0.154;2024-02-21T08:32:14;100896.88;;;9.56;97.63
70407;BME280;57821;52.202;0.154;2024-02-21T08:34:40;100892.56;;;9.57;98.04
70407;BME280;57821;52.202;0.154;2024-02-21T08:37:07;100887.41;;;9.58;98.46
70407;BME280;57821;52.202;0.154;2024-02-21T08:39:34;100875.34;;;9.59;98.47
70407;BME280;57821;52.202;0.154;2024-02-21T08:42:01;100875.34;;;9.60;98.11
70407;BME280;57821;52.202;0.154;2024-02-21T08:44:28;100872.72;;;9.62;97.90
70407;BME280;57821;52.202;0.154;2024-02-21T08:46:55;100865.84;;;9.62;98.62
70407;BME280;57821;52.202;0.154;2024-02-21T08:49:23;100876.22;;;9.65;98.12
70407;BME280;57821;52.202;0.154;2024-02-21T08:51:52;100864.13;;;9.67;98.30
70407;BME280;57821;52.202;0.154;2024-02-21T08:54:18;100851.19;;;9.66;98.39
70407;BME280;57821;52.202;0.154;2024-02-21T08:56:45;100857.25;;;9.72;98.47
70407;BME280;57821;52.202;0.154;2024-02-21T08:59:12;100845.16;;;9.74;98.59
70407;BME280;57821;52.202;0.154;2024-02-21T09:01:39;100841.69;;;9.75;97.98
70407;BME280;57821;52.202;0.154;2024-02-21T09:04:06;100839.97;;;9.77;97.93
70407;BME280;57821;52.202;0.154;2024-02-21T09:06:34;100822.72;;;9.76;98.48
70407;BME280;57821;52.202;0.154;2024-02-21T09:09:03;100820.97;;;9.80;98.61
70407;BME280;57821;52.202;0.154;2024-02-21T09:11:30;100811.50;;;9.80;98.27
70407;BME280;57821;52.202;0.154;2024-02-21T09:13:57;100803.72;;;9.80;98.49
70407;BME280;57821;52.202;0.154;2024-02-21T09:16:24;100795.06;;;9.84;98.24
70407;BME280;57821;52.202;0.154;2024-02-21T09:18:51;100795.94;;;9.85;97.82
70407;BME280;57821;52.202;0.154;2024-02-21T09:21:19;100788.19;;;9.86;98.08
70407;BME280;57821;52.202;0.154;2024-02-21T09:23:45;100786.47;;;9.87;98.53
70407;BME280;57821;52.202;0.154;2024-02-21T09:26:12;100778.69;;;9.88;98.56
70407;BME280;57821;52.202;0.154;2024-02-21T09:28:44;100766.63;;;9.89;98.44
70407;BME280;57821;52.202;0.154;2024-02-21T09:31:11;100764.88;;;9.89;98.68
70407;BME280;57821;52.202;0.154;2024-02-21T09:33:38;100745.88;;;9.90;98.27
70407;BME280;57821;52.202;0.154;2024-02-21T09:36:06;100742.41;;;9.92;98.13
70407;BME280;57821;52.202;0.154;2024-02-21T09:38:32;100734.66;;;9.92;98.83
70407;BME280;57821;52.202;0.154;2024-02-21T09:43:30;100718.25;;;9.91;98.13
70407;BME280;57821;52.202;0.154;2024-02-21T09:46:00;100722.56;;;9.94;98.95
70407;BME280;57821;52.202;0.154;2024-02-21T09:51:09;100701.84;;;9.94;98.92
70407;BME280;57821;52.202;0.154;2024-02-21T09:53:37;100703.56;;;9.98;99.13
70407;BME280;57821;52.202;0.154;2024-02-21T09:56:07;100710.47;;;9.99;98.86
70407;BME280;57821;52.202;0.154;2024-02-21T09:58:37;100696.66;;;10.00;99.48
70407;BME280;57821;52.202;0.154;2024-02-21T10:01:04;100686.28;;;10.00;99.21
70407;BME280;57821;52.202;0.154;2024-02-21T10:03:46;100675.94;;;10.00;99.09
70407;BME280;57821;52.202;0.154;2024-02-21T10:06:14;100673.31;;;10.03;99.00
70407;BME280;57821;52.202;0.154;2024-02-21T10:08:40;100669.00;;;10.02;99.06
70407;BME280;57821;52.202;0.154;2024-02-21T10:11:07;100665.56;;;10.03;99.33
70407;BME280;57821;52.202;0.154;2024-02-21T10:13:35;100650.00;;;10.03;99.53
70407;BME280;57821;52.202;0.154;2024-02-21T10:16:06;100648.28;;;10.02;100.00
70407;BME280;57821;52.202;0.154;2024-02-21T10:18:36;100646.56;;;10.02;100.00
70407;BME280;57821;52.202;0.154;2024-02-21T10:21:06;100628.44;;;9.99;100.00
70407;BME280;57821;52.202;0.154;2024-02-21T10:23:48;100627.59;;;9.99;100.00
70407;BME280;57821;52.202;0.154;2024-02-21T10:26:17;100637.94;;;10.05;100.00
70407;BME280;57821;52.202;0.154;2024-02-21T10:28:44;100624.97;;;10.06;100.00
70407;BME280;57821;52.202;0.154;2024-02-21T10:31:24;100624.09;;;10.06;100.00
70407;BME280;57821;52.202;0.154;2024-02-21T10:34:01;100603.34;;;10.09;99.88
70407;BME280;57821;52.202;0.154;2024-02-21T10:36:32;100598.19;;;10.09;100.00
70407;BME280;57821;52.202;0.154;2024-02-21T10:38:59;100593.88;;;10.11;100.00
70407;BME280;57821;52.202;0.154;2024-02-21T10:41:26;100581.78;;;10.13;100.00
70407;BME280;57821;52.202;0.154;2024-02-21T10:43:55;100564.47;;;10.13;99.94
70407;BME280;57821;52.202;0.154;2024-02-21T10:46:23;100569.66;;;10.15;100.00
70407;BME280;57821;52.202;0.154;2024-02-21T10:51:31;100525.66;;;10.12;100.00
70407;BME280;57821;52.202;0.154;2024-02-21T10:56:38;100518.72;;;10.17;100.00
70407;BME280;57821;52.202;0.154;2024-02-21T10:59:07;100521.31;;;10.17;100.00
70407;BME280;57821;52.202;0.154;2024-02-21T11:01:34;100514.41;;;10.19;100.00
70407;BME280;57821;52.202;0.154;2024-02-21T11:04:11;100492.78;;;10.14;100.00
70407;BME280;57821;52.202;0.154;2024-02-21T11:06:42;100491.06;;;10.16;100.00
70407;BME280;57821;52.202;0.154;2024-02-21T11:09:10;100487.59;;;10.20;100.00
70407;BME280;57821;52.202;0.154;2024-02-21T11:11:40;100482.44;;;10.20;100.00
70407;BME280;57821;52.202;0.154;2024-02-21T11:14:11;100479.84;;;10.20;100.00
70407;BME280;57821;52.202;0.154;2024-02-21T11:16:43;100470.34;;;10.22;100.00
70407;BME280;57821;52.202;0.154;2024-02-21T11:19:21;100463.44;;;10.21;100.00
70407;BME280;57821;52.202;0.154;2024-02-21T11:21:49;100444.38;;;10.25;100.00
70407;BME280;57821;52.202;0.154;2024-02-21T11:24:34;100438.38;;;10.24;100.00
70407;BME280;57821;52.202;0.154;2024-02-21T11:27:11;100420.19;;;10.26;100.00
70407;BME280;57821;52.202;0.154;2024-02-21T11:32:15;100416.75;;;10.27;100.00
70407;BME280;57821;52.202;0.154;2024-02-21T11:34:58;100409.84;;;10.29;100.00
70407;BME280;57821;52.202;0.154;2024-02-21T11:37:31;100381.31;;;10.31;100.00
70407;BME280;57821;52.202;0.154;2024-02-21T11:40:04;100374.41;;;10.29;100.00
70407;BME280;57821;52.202;0.154;2024-02-21T11:42:33;100380.41;;;10.33;100.00
70407;BME280;57821;52.202;0.154;2024-02-21T11:45:00;100376.97;;;10.34;100.00
70407;BME280;57821;52.202;0.154;2024-02-21T11:47:28;100352.81;;;10.29;100.00
70407;BME280;57821;52.202;0.154;2024-02-21T11:49:55;100338.94;;;10.35;100.00
70407;BME280;57821;52.202;0.154;2024-02-21T11:52:24;100347.56;;;10.37;100.00
70407;BME280;57821;52.202;0.154;2024-02-21T11:54:55;100345.81;;;10.39;100.00
70407;BME280;57821;52.202;0.154;2024-02-21T11:57:24;100338.91;;;10.39;100.00
70407;BME280;57821;52.202;0.154;2024-02-21T11:59:51;100325.06;;;10.39;100.00
70407;BME280;57821;52.202;0.154;2024-02-21T12:02:25;100327.66;;;10.42;100.00
70407;BME280;57821;52.202;0.154;2024-02-21T12:04:52;100321.63;;;10.41;100.00
70407;BME280;57821;52.202;0.154;2024-02-21T12:07:21;100304.28;;;10.43;100.00
70407;BME280;57821;52.202;0.154;2024-02-21T12:09:51;100307.75;;;10.45;100.00
70407;BME280;57821;52.202;0.154;2024-02-21T12:12:19;100299.09;;;10.45;100.00
70407;BME280;57821;52.202;0.154;2024-02-21T12:14:55;100279.28;;;10.42;100.00
70407;BME280;57821;52.202;0.154;2024-02-21T12:17:22;100280.94;;;10.48;100.00
70407;BME280;57821;52.202;0.154;2024-02-21T12:19:50;100274.84;;;10.50;100.00
70407;BME280;57821;52.202;0.154;2024-02-21T12:22:20;100256.69;;;10.50;100.00
70407;BME280;57821;52.202;0.154;2024-02-21T12:24:47;100253.22;;;10.53;100.00
70407;BME280;57821;52.202;0.154;2024-02-21T12:27:14;100250.59;;;10.54;100.00
70407;BME280;57821;52.202;0.154;2024-02-21T12:29:41;100235.03;;;10.57;100.00
70407;BME280;57821;52.202;0.154;2024-02-21T12:32:08;100188.31;;;10.60;100.00
70407;BME280;57821;52.202;0.154;2024-02-21T12:34:35;100187.44;;;10.63;100.00
70407;BME280;57821;52.202;0.154;2024-02-21T12:37:18;100183.94;;;10.65;100.00
70407;BME280;57821;52.202;0.154;2024-02-21T12:39:46;100184.75;;;10.67;100.00
70407;BME280;57821;52.202;0.154;2024-02-21T12:42:13;100170.06;;;10.69;100.00
70407;BME280;57821;52.202;0.154;2024-02-21T12:44:41;100169.13;;;10.74;100.00
70407;BME280;57821;52.202;0.154;2024-02-21T12:47:08;100172.56;;;10.76;100.00
70407;BME280;57821;52.202;0.154;2024-02-21T12:49:35;100140.59;;;10.75;100.00
70407;BME280;57821;52.202;0.154;2024-02-21T12:52:03;100131.03;;;10.79;100.00
70407;BME280;57821;52.202;0.154;2024-02-21T12:54:30;100131.00;;;10.82;100.00
70407;BME280;57821;52.202;0.154;2024-02-21T12:56:57;100128.38;;;10.83;99.45
70407;BME280;57821;52.202;0.154;2024-02-21T12:59:24;100124.00;;;10.85;99.57
70407;BME280;57821;52.202;0.154;2024-02-21T13:01:52;100118.81;;;10.87;99.61
70407;BME280;57821;52.202;0.154;2024-02-21T13:04:19;100107.56;;;10.88;99.82
70407;BME280;57821;52.202;0.154;2024-02-21T13:06:48;100101.47;;;10.90;99.38
70407;BME280;57821;52.202;0.154;2024-02-21T13:09:15;100094.53;;;10.91;99.16